Terminal Aerodrome Forecast
Issued by NWS

Home | Current Version | Previous Version | Text Only | Print | Product List | Glossary On
Versions: 1 2 3 4 5 6 7 8 9 10 11 12 13
000
FTUS42 TJSJ 180500
TAFKPK
TAF
TKPK 180534Z 1806/1906 03007KT P6SM VCSH SCT020
     FM181300 06010KT P6SM VCTS SCT018CB BKN035
      TEMPO 1815/1819 5SM TSRA BKN015CB
     FM190100 07010KT P6SM SCT020
      AMD NOT SKED TIL 181100=

USA.gov is the U.S. government's official web portal to all federal, state and local government web resources and services.